Time;durP1;ratioP1;P1;durP2;ratioP2;P2;SDS_P1;SDS_P2;PMS_P1;PMS_P2;Temp;Humidity;BMP_temperature;BMP_pressure;BME280_temperature;BME280_humidity;BME280_pressure;Samples;Min_cycle;Max_cycle;Signal;HPM_P1;HPM_P2
2023/09/17 00:01:05;;;;;;;16.25;13.80;;;20.10;99.90;;;;;;5074388;28;20296;-58
2023/09/17 00:03:32;;;;;;;17.17;14.15;;;19.90;99.90;;;;;;5073705;28;20166;-58
2023/09/17 00:05:58;;;;;;;21.13;14.57;;;20.00;99.90;;;;;;5074473;28;20173;-58
2023/09/17 00:08:23;;;;;;;17.45;14.73;;;20.00;99.90;;;;;;5074892;28;20162;-58
2023/09/17 00:10:49;;;;;;;16.40;14.32;;;19.90;99.90;;;;;;5074132;28;20216;-58
2023/09/17 00:13:15;;;;;;;15.57;13.90;;;20.00;99.90;;;;;;5073996;28;20210;-58
2023/09/17 00:15:41;;;;;;;17.00;15.07;;;20.00;99.90;;;;;;5074062;28;20624;-58
2023/09/17 00:18:06;;;;;;;16.83;13.90;;;20.00;99.90;;;;;;5074009;28;20170;-57
2023/09/17 00:20:32;;;;;;;19.50;15.65;;;20.10;99.90;;;;;;5074145;28;20206;-58
2023/09/17 00:22:59;;;;;;;18.55;15.32;;;20.10;99.90;;;;;;5074035;28;20158;-57
2023/09/17 00:25:25;;;;;;;17.67;15.68;;;20.00;99.90;;;;;;5074220;28;20184;-57
2023/09/17 00:27:51;;;;;;;21.65;15.48;;;20.00;99.90;;;;;;5074366;28;20170;-58
2023/09/17 00:30:17;;;;;;;16.75;14.95;;;20.00;99.90;;;;;;5072799;28;20166;-57
2023/09/17 00:32:43;;;;;;;16.90;14.60;;;20.00;99.90;;;;;;5073740;28;20253;-57
2023/09/17 00:35:11;;;;;;;17.05;14.13;;;20.00;99.90;;;;;;5072873;28;20189;-57
2023/09/17 00:37:37;;;;;;;17.05;13.60;;;20.10;99.90;;;;;;5073705;28;20181;-58
2023/09/17 00:40:09;;;;;;;17.70;13.80;;;20.00;99.90;;;;;;5073609;28;20170;-57
2023/09/17 00:42:35;;;;;;;16.50;13.35;;;20.00;99.90;;;;;;5073627;28;20162;-56
2023/09/17 00:45:03;;;;;;;20.23;12.85;;;19.90;99.90;;;;;;5073423;28;20623;-57
2023/09/17 00:47:30;;;;;;;18.42;12.57;;;20.00;99.90;;;;;;5073820;28;20182;-57
2023/09/17 00:49:56;;;;;;;15.15;10.75;;;19.90;99.90;;;;;;5073380;28;20172;-58
2023/09/17 00:52:22;;;;;;;13.02;11.73;;;20.00;99.90;;;;;;5073847;28;20570;-57
2023/09/17 00:54:49;;;;;;;14.25;10.88;;;20.00;99.90;;;;;;5073423;28;20170;-57
2023/09/17 00:57:16;;;;;;;12.80;11.32;;;20.00;99.90;;;;;;5073373;28;20166;-56
2023/09/17 00:59:47;;;;;;;13.13;11.82;;;19.90;99.90;;;;;;5073199;28;20212;-57
2023/09/17 01:02:13;;;;;;;17.60;13.25;;;20.00;99.90;;;;;;5073526;28;20170;-58
2023/09/17 01:04:42;;;;;;;14.00;12.45;;;20.00;99.90;;;;;;5073247;28;20638;-57
2023/09/17 01:07:09;;;;;;;16.15;11.55;;;19.90;99.90;;;;;;5072025;28;20534;-57
2023/09/17 01:09:36;;;;;;;14.10;12.48;;;19.90;99.90;;;;;;5073077;28;20177;-58
2023/09/17 01:12:02;;;;;;;15.45;12.15;;;19.90;99.90;;;;;;5073051;28;20206;-58
2023/09/17 01:14:29;;;;;;;21.10;15.13;;;19.80;99.90;;;;;;5073008;28;20173;-58
2023/09/17 01:16:57;;;;;;;22.33;16.98;;;19.90;99.90;;;;;;5073101;28;20166;-57
2023/09/17 01:19:24;;;;;;;21.48;18.08;;;19.90;99.90;;;;;;5073536;28;20299;-58
2023/09/17 01:22:06;;;;;;;24.92;20.42;;;19.90;99.90;;;;;;5073501;28;20177;-58
2023/09/17 01:24:59;;;;;;;24.88;20.77;;;19.90;99.90;;;;;;5072724;28;20674;-58
2023/09/17 01:27:26;;;;;;;28.25;21.15;;;19.80;99.90;;;;;;5072668;28;20635;-58
2023/09/17 01:29:52;;;;;;;29.85;20.70;;;19.90;99.90;;;;;;5073243;28;20213;-58
2023/09/17 01:32:19;;;;;;;24.63;20.20;;;20.00;99.90;;;;;;5072550;28;20568;-58
2023/09/17 01:34:49;;;;;;;20.70;18.27;;;19.90;99.90;;;;;;5072803;28;20162;-58
2023/09/17 01:37:23;;;;;;;25.38;19.25;;;20.00;99.90;;;;;;5072788;28;20170;-58
2023/09/17 01:39:56;;;;;;;23.05;19.20;;;20.00;99.90;;;;;;5072357;28;20631;-58
2023/09/17 01:42:23;;;;;;;22.83;18.33;;;19.90;99.90;;;;;;5072580;28;20166;-58
2023/09/17 01:44:49;;;;;;;21.33;17.27;;;20.00;99.90;;;;;;5072239;28;20245;-58
2023/09/17 01:47:16;;;;;;;20.85;18.48;;;19.90;99.90;;;;;;5072279;28;20198;-57
2023/09/17 01:49:44;;;;;;;22.02;18.20;;;19.90;99.90;;;;;;5072271;28;20174;-57
2023/09/17 01:52:10;;;;;;;26.65;19.42;;;19.80;99.90;;;;;;5072150;28;20205;-58
2023/09/17 01:54:36;;;;;;;23.90;19.98;;;19.80;99.90;;;;;;5072334;28;20220;-58
2023/09/17 01:57:02;;;;;;;21.23;18.90;;;19.70;99.90;;;;;;5070907;28;20616;-58
2023/09/17 01:59:27;;;;;;;27.75;19.50;;;19.80;99.90;;;;;;5072062;28;20228;-59
2023/09/17 02:01:53;;;;;;;23.15;18.38;;;19.70;99.90;;;;;;5072494;28;20211;-58
2023/09/17 02:04:18;;;;;;;28.08;18.88;;;19.70;99.90;;;;;;5071987;28;20193;-56
2023/09/17 02:06:45;;;;;;;21.00;17.67;;;19.80;99.90;;;;;;5072259;28;20261;-58
2023/09/17 02:09:12;;;;;;;21.92;17.20;;;19.80;99.90;;;;;;5072194;28;20205;-58
2023/09/17 02:11:38;;;;;;;20.15;16.15;;;19.70;99.90;;;;;;5072120;28;20224;-58
2023/09/17 02:14:04;;;;;;;19.38;14.88;;;19.70;99.90;;;;;;5072180;28;20166;-58
2023/09/17 02:16:31;;;;;;;20.83;16.13;;;19.80;99.90;;;;;;5072074;28;20245;-59
2023/09/17 02:18:57;;;;;;;19.10;15.80;;;19.70;99.90;;;;;;5071902;28;20499;-58
2023/09/17 02:21:23;;;;;;;22.75;18.25;;;19.70;99.90;;;;;;5072497;28;20166;-58
2023/09/17 02:23:48;;;;;;;22.70;16.77;;;19.70;99.90;;;;;;5071789;28;20174;-59
2023/09/17 02:26:15;;;;;;;18.48;16.55;;;19.80;99.90;;;;;;5071735;28;20173;-58
2023/09/17 02:28:41;;;;;;;17.50;15.32;;;19.70;99.90;;;;;;5072034;28;20174;-58
2023/09/17 02:31:07;;;;;;;20.30;15.73;;;19.80;99.90;;;;;;5071602;28;20196;-58
2023/09/17 02:33:32;;;;;;;20.38;14.43;;;19.80;99.90;;;;;;5071653;28;20206;-58
2023/09/17 02:35:58;;;;;;;19.90;14.73;;;19.70;99.90;;;;;;5071619;28;20170;-58
2023/09/17 02:38:26;;;;;;;20.95;15.23;;;;;;;;;;5071923;28;20162;-57
2023/09/17 02:40:51;;;;;;;18.08;14.68;;;19.60;99.90;;;;;;5070631;28;20531;-59
2023/09/17 02:43:17;;;;;;;18.80;15.85;;;19.70;99.90;;;;;;5071588;28;20166;-58
2023/09/17 02:45:43;;;;;;;22.45;17.05;;;19.50;99.90;;;;;;5071445;28;20239;-58
2023/09/17 02:48:11;;;;;;;24.40;19.35;;;19.60;99.90;;;;;;5071723;28;20237;-59
2023/09/17 02:50:39;;;;;;;25.75;19.42;;;19.50;99.90;;;;;;5071675;28;20174;-59
2023/09/17 02:53:05;;;;;;;26.90;20.77;;;19.60;99.90;;;;;;5070934;28;20229;-58
2023/09/17 02:55:32;;;;;;;25.80;20.08;;;19.60;99.90;;;;;;5071406;28;20169;-58
2023/09/17 02:57:57;;;;;;;24.02;20.50;;;19.50;99.90;;;;;;5071343;28;20174;-58
2023/09/17 03:00:23;;;;;;;22.45;19.27;;;19.70;99.90;;;;;;5071846;28;20169;-59
2023/09/17 03:02:50;;;;;;;22.77;19.33;;;19.60;99.90;;;;;;5071287;28;20173;-58
2023/09/17 03:05:17;;;;;;;26.95;20.60;;;19.70;99.90;;;;;;5071258;28;20174;-59
2023/09/17 03:07:43;;;;;;;25.15;20.05;;;19.60;99.90;;;;;;5071778;28;20174;-59
2023/09/17 03:10:11;;;;;;;26.70;19.50;;;19.50;99.90;;;;;;5071254;28;20184;-58
2023/09/17 03:12:38;;;;;;;24.00;19.38;;;19.70;99.90;;;;;;5071093;28;20206;-59
2023/09/17 03:15:05;;;;;;;26.13;20.95;;;19.60;99.90;;;;;;5070978;28;20166;-59
2023/09/17 03:17:31;;;;;;;26.98;20.35;;;19.70;99.90;;;;;;5069731;28;20166;-58
2023/09/17 03:19:57;;;;;;;23.95;20.92;;;19.70;99.90;;;;;;5071328;28;20585;-59
2023/09/17 03:22:22;;;;;;;27.88;20.88;;;19.60;99.90;;;;;;5071483;28;20170;-58
2023/09/17 03:24:48;;;;;;;28.23;21.77;;;19.70;99.90;;;;;;5071054;28;20227;-59
2023/09/17 03:27:14;;;;;;;23.50;21.00;;;19.80;99.90;;;;;;5071348;28;20176;-59
2023/09/17 03:29:39;;;;;;;26.20;21.00;;;19.80;99.90;;;;;;5071272;28;20219;-58
2023/09/17 03:32:05;;;;;;;28.55;21.08;;;19.80;99.90;;;;;;5071174;28;20201;-58
2023/09/17 03:34:32;;;;;;;26.48;20.98;;;19.60;99.90;;;;;;5071041;28;20161;-59
2023/09/17 03:36:58;;;;;;;25.15;22.00;;;19.80;99.90;;;;;;5070876;28;20217;-58
2023/09/17 03:39:24;;;;;;;30.10;22.92;;;;;;;;;;5071429;28;20204;-59
2023/09/17 03:41:49;;;;;;;25.30;22.65;;;19.60;99.90;;;;;;5071387;28;20178;-59
2023/09/17 03:44:15;;;;;;;25.35;21.48;;;19.70;99.90;;;;;;5070840;28;20170;-59
2023/09/17 03:46:41;;;;;;;24.42;21.60;;;19.50;99.90;;;;;;5070777;28;20210;-58
2023/09/17 03:49:06;;;;;;;24.45;21.95;;;19.70;99.90;;;;;;5070796;28;20197;-59
2023/09/17 03:51:32;;;;;;;30.10;21.88;;;19.60;99.90;;;;;;5069478;28;20292;-58
2023/09/17 03:53:59;;;;;;;25.17;21.13;;;19.50;99.90;;;;;;5070784;28;20206;-58
2023/09/17 03:56:25;;;;;;;23.40;20.65;;;19.40;99.90;;;;;;5070808;28;20647;-58
2023/09/17 03:58:51;;;;;;;27.70;20.80;;;19.70;99.90;;;;;;5071235;28;20265;-59
2023/09/17 04:01:18;;;;;;;30.88;20.30;;;19.60;99.90;;;;;;5070658;28;20708;-59
2023/09/17 04:03:44;;;;;;;24.33;21.73;;;19.50;99.90;;;;;;5070707;28;20169;-58
2023/09/17 04:06:10;;;;;;;24.30;19.92;;;19.60;99.90;;;;;;5074634;28;20256;-59
2023/09/17 04:08:36;;;;;;;26.05;23.25;;;19.50;99.90;;;;;;5074260;28;20257;-58
2023/09/17 04:11:01;;;;;;;27.08;21.58;;;19.40;99.90;;;;;;5074542;28;20173;-58
2023/09/17 04:13:27;;;;;;;28.48;21.92;;;19.50;99.90;;;;;;5074080;28;20197;-58
2023/09/17 04:15:53;;;;;;;33.22;22.95;;;19.60;99.90;;;;;;5074572;28;20162;-58
2023/09/17 04:18:18;;;;;;;24.35;21.30;;;19.60;99.90;;;;;;5074572;28;20658;-58
2023/09/17 04:20:44;;;;;;;26.45;22.52;;;19.40;99.90;;;;;;5074277;28;20634;-58
2023/09/17 04:23:09;;;;;;;29.23;21.90;;;19.60;99.90;;;;;;5074072;28;20639;-59
2023/09/17 04:25:35;;;;;;;29.30;23.75;;;19.30;99.90;;;;;;5073979;28;20158;-58
2023/09/17 04:28:02;;;;;;;58.60;34.40;;;19.40;99.90;;;;;;5074122;28;20682;-58
2023/09/17 04:30:28;;;;;;;54.83;35.88;;;19.60;99.90;;;;;;5074160;28;20168;-58
2023/09/17 04:32:54;;;;;;;31.00;25.65;;;;;;;;;;5074197;28;20288;-58
2023/09/17 04:35:20;;;;;;;27.55;22.92;;;19.50;99.90;;;;;;5074417;28;20216;-58
2023/09/17 04:37:48;;;;;;;57.85;35.55;;;19.50;99.90;;;;;;5073757;28;20631;-59
2023/09/17 04:40:13;;;;;;;110.78;58.17;;;19.30;99.90;;;;;;5073674;28;20223;-59
2023/09/17 04:42:43;;;;;;;43.45;30.30;;;19.50;99.90;;;;;;5073557;28;20162;-59
2023/09/17 04:45:09;;;;;;;31.27;25.90;;;19.50;99.90;;;;;;5073661;28;20267;-59
2023/09/17 04:47:36;;;;;;;47.03;32.55;;;19.40;99.90;;;;;;5073640;28;20177;-59
2023/09/17 04:50:03;;;;;;;30.98;24.30;;;19.50;99.90;;;;;;5073460;28;20688;-58
2023/09/17 04:52:29;;;;;;;29.23;24.15;;;19.20;99.90;;;;;;5073379;28;20309;-59
2023/09/17 04:54:54;;;;;;;61.92;41.30;;;19.20;99.90;;;;;;5073392;28;20202;-58
2023/09/17 04:57:20;;;;;;;37.33;28.38;;;19.40;99.90;;;;;;5073776;28;20170;-58
2023/09/17 04:59:46;;;;;;;33.00;25.50;;;19.30;99.90;;;;;;5073276;28;20188;-59
2023/09/17 05:02:14;;;;;;;27.40;22.63;;;19.50;99.90;;;;;;5073254;28;20170;-59
2023/09/17 05:04:40;;;;;;;32.67;25.50;;;19.30;99.90;;;;;;5073159;28;20249;-59
2023/09/17 05:07:05;;;;;;;27.42;22.65;;;19.30;99.90;;;;;;5073262;28;20201;-59
2023/09/17 05:09:32;;;;;;;70.60;43.75;;;19.10;99.90;;;;;;5073166;28;20192;-58
2023/09/17 05:11:58;;;;;;;73.45;44.63;;;19.20;99.90;;;;;;5072923;28;20730;-59
2023/09/17 05:14:23;;;;;;;91.43;53.08;;;;;;;;;;5073065;28;20201;-57
2023/09/17 05:16:49;;;;;;;36.83;29.33;;;19.30;99.90;;;;;;5072895;28;20170;-59
2023/09/17 05:19:15;;;;;;;75.35;47.78;;;19.20;99.90;;;;;;5072957;28;20170;-59
2023/09/17 05:21:40;;;;;;;66.55;43.00;;;19.00;99.90;;;;;;5072872;28;20166;-59
2023/09/17 05:24:06;;;;;;;41.65;29.60;;;19.30;99.90;;;;;;5072833;28;20165;-59
2023/09/17 05:26:32;;;;;;;37.05;28.20;;;19.10;99.90;;;;;;5072870;28;20658;-59
2023/09/17 05:28:57;;;;;;;46.60;33.67;;;18.90;99.90;;;;;;5073018;28;20607;-59
2023/09/17 05:31:23;;;;;;;68.35;40.58;;;;;;;;;;5072987;28;20515;-57
2023/09/17 05:33:50;;;;;;;41.75;29.08;;;19.10;99.90;;;;;;5071803;28;20174;-59
2023/09/17 05:36:15;;;;;;;78.75;45.30;;;19.20;99.90;;;;;;5072904;28;20174;-58
2023/09/17 05:38:41;;;;;;;47.05;32.28;;;19.30;99.90;;;;;;5072583;28;20291;-58
2023/09/17 05:41:07;;;;;;;50.70;34.80;;;19.00;99.90;;;;;;5072466;28;20204;-58
2023/09/17 05:43:32;;;;;;;43.80;31.38;;;19.00;99.90;;;;;;5072611;28;20210;-58
2023/09/17 05:45:58;;;;;;;79.85;48.50;;;19.10;99.90;;;;;;5072251;28;20673;-58
2023/09/17 05:48:24;;;;;;;77.15;46.00;;;19.10;99.90;;;;;;5072397;28;20607;-58
2023/09/17 05:50:50;;;;;;;66.13;43.00;;;19.40;99.90;;;;;;5073016;28;20211;-56
2023/09/17 05:53:16;;;;;;;50.20;35.90;;;19.30;99.90;;;;;;5072494;28;20236;-59
2023/09/17 05:55:42;;;;;;;70.18;44.05;;;19.50;99.90;;;;;;5072266;28;20245;-59
2023/09/17 05:58:08;;;;;;;43.00;28.90;;;19.40;99.90;;;;;;5072207;28;20166;-59
2023/09/17 06:00:33;;;;;;;32.97;25.92;;;19.30;99.90;;;;;;5072210;28;20245;-59
2023/09/17 06:03:00;;;;;;;35.03;27.13;;;;;;;;;;5072083;28;20173;-59
2023/09/17 06:05:25;;;;;;;53.90;34.70;;;19.40;99.90;;;;;;5067510;28;20543;-59
2023/09/17 06:07:51;;;;;;;38.97;27.17;;;;;;;;;;5071007;28;20174;-59
2023/09/17 06:10:18;;;;;;;59.45;38.33;;;;;;;;;;5071621;28;20162;-59
2023/09/17 06:12:44;;;;;;;45.38;30.58;;;;;;;;;;5071427;28;20314;-59
2023/09/17 06:15:10;;;;;;;51.35;33.28;;;19.60;99.90;;;;;;5071354;28;20197;-59
2023/09/17 06:17:35;;;;;;;37.83;25.23;;;19.70;99.90;;;;;;5071261;28;20216;-59
2023/09/17 06:20:01;;;;;;;46.97;29.52;;;19.80;99.90;;;;;;5070089;28;20181;-59
2023/09/17 06:22:27;;;;;;;35.72;24.77;;;19.90;99.90;;;;;;5069539;28;20214;-59
2023/09/17 06:24:52;;;;;;;34.50;22.58;;;20.00;99.90;;;;;;5071620;28;20580;-59
2023/09/17 06:27:18;;;;;;;53.22;25.23;;;19.80;99.90;;;;;;5070581;28;20210;-59
2023/09/17 06:29:44;;;;;;;22.38;14.25;;;;;;;;;;5067500;28;20166;-59
2023/09/17 06:32:10;;;;;;;28.30;15.27;;;20.00;99.90;;;;;;5070753;28;20212;-59
2023/09/17 06:34:36;;;;;;;15.95;12.30;;;19.90;99.90;;;;;;5070836;28;20162;-59
2023/09/17 06:37:02;;;;;;;15.18;11.48;;;20.10;99.90;;;;;;5071600;28;20173;-59
2023/09/17 06:39:27;;;;;;;23.33;13.35;;;20.10;99.90;;;;;;5071847;28;20178;-59
2023/09/17 06:41:53;;;;;;;12.52;10.95;;;20.30;99.90;;;;;;5071457;28;20169;-59
2023/09/17 06:44:19;;;;;;;12.60;9.10;;;20.30;99.90;;;;;;5071305;28;20166;-59
2023/09/17 06:46:45;;;;;;;10.52;7.95;;;20.40;99.90;;;;;;5070816;28;20222;-59
2023/09/17 06:49:11;;;;;;;9.85;8.95;;;20.70;99.90;;;;;;5071447;28;20161;-59
2023/09/17 06:51:37;;;;;;;13.32;9.32;;;20.70;99.90;;;;;;5070864;28;20533;-59
2023/09/17 06:54:03;;;;;;;9.52;8.13;;;20.60;99.90;;;;;;5070874;28;20188;-61
2023/09/17 06:56:29;;;;;;;9.00;8.10;;;20.70;99.90;;;;;;5069727;28;20551;-59
2023/09/17 06:58:55;;;;;;;15.13;9.73;;;20.80;99.90;;;;;;5071458;28;20252;-57
2023/09/17 07:01:20;;;;;;;11.52;6.93;;;20.80;99.90;;;;;;5071793;28;20249;-57
2023/09/17 07:03:46;;;;;;;7.40;6.53;;;20.80;99.90;;;;;;5071291;28;20689;-59
2023/09/17 07:06:12;;;;;;;8.60;7.63;;;20.90;99.90;;;;;;5069993;28;20560;-59
2023/09/17 07:08:38;;;;;;;13.32;8.90;;;;;;;;;;5071235;28;20166;-59
2023/09/17 07:11:04;;;;;;;9.27;6.75;;;21.00;99.90;;;;;;5071140;28;20214;-59
2023/09/17 07:13:30;;;;;;;10.40;7.40;;;21.00;99.90;;;;;;5070996;28;20237;-59
2023/09/17 07:15:56;;;;;;;10.25;6.72;;;21.10;99.90;;;;;;5071151;28;20173;-59
2023/09/17 07:18:21;;;;;;;7.93;7.05;;;21.20;99.90;;;;;;5071460;28;20174;-59
2023/09/17 07:20:49;;;;;;;8.60;7.22;;;21.10;99.90;;;;;;5070976;28;20256;-59
2023/09/17 07:23:15;;;;;;;10.90;7.72;;;21.20;99.90;;;;;;5071025;28;20249;-59
2023/09/17 07:25:41;;;;;;;8.65;6.38;;;;;;;;;;5070917;28;20701;-58
2023/09/17 07:28:09;;;;;;;9.23;6.05;;;21.20;99.90;;;;;;5070908;28;20185;-59
2023/09/17 07:30:35;;;;;;;9.40;6.32;;;21.40;99.90;;;;;;5070905;28;20170;-59
2023/09/17 07:33:05;;;;;;;8.20;6.60;;;21.50;99.90;;;;;;5071205;28;20213;-58
2023/09/17 07:35:32;;;;;;;11.00;6.68;;;21.50;99.90;;;;;;5071019;28;20188;-58
2023/09/17 07:37:59;;;;;;;10.30;7.45;;;21.60;99.90;;;;;;5071224;28;20177;-58
2023/09/17 07:40:25;;;;;;;12.02;8.73;;;21.70;99.90;;;;;;5073879;28;20174;-58
2023/09/17 07:42:50;;;;;;;13.02;7.88;;;21.70;99.90;;;;;;5075256;28;20173;-58
2023/09/17 07:45:16;;;;;;;13.40;8.32;;;21.80;99.90;;;;;;5074830;28;20713;-58
2023/09/17 07:47:41;;;;;;;13.00;7.22;;;21.80;99.90;;;;;;5074688;28;20168;-58
2023/09/17 07:50:07;;;;;;;10.10;6.75;;;21.90;99.90;;;;;;5074684;28;20539;-58
2023/09/17 07:52:33;;;;;;;9.23;5.25;;;21.90;99.90;;;;;;5074765;28;20220;-57
2023/09/17 07:54:58;;;;;;;8.95;5.47;;;21.90;99.90;;;;;;5074576;28;20516;-57
2023/09/17 07:57:24;;;;;;;8.32;5.53;;;22.00;99.90;;;;;;5074520;28;20184;-59
2023/09/17 07:59:50;;;;;;;6.85;5.00;;;22.00;99.90;;;;;;5075058;28;20158;-58
2023/09/17 08:02:15;;;;;;;5.70;5.20;;;22.20;99.90;;;;;;5074434;28;20540;-59
2023/09/17 08:04:41;;;;;;;6.45;5.00;;;22.10;99.90;;;;;;5074757;28;20205;-58
2023/09/17 08:07:07;;;;;;;5.82;5.25;;;22.20;99.90;;;;;;5074500;28;20207;-59
2023/09/17 08:09:33;;;;;;;5.45;4.90;;;22.30;99.90;;;;;;5074600;28;20638;-59
2023/09/17 08:12:00;;;;;;;6.65;5.63;;;22.30;99.90;;;;;;5072885;28;20294;-56
2023/09/17 08:14:26;;;;;;;5.38;4.72;;;22.50;99.90;;;;;;5074328;28;20284;-58
2023/09/17 08:16:52;;;;;;;7.90;5.60;;;22.40;99.90;;;;;;5074696;28;20194;-59
2023/09/17 08:19:18;;;;;;;7.22;4.72;;;22.50;99.90;;;;;;5074882;28;20173;-59
2023/09/17 08:21:44;;;;;;;6.20;5.20;;;;;;;;;;5072917;28;20627;-59
2023/09/17 08:24:10;;;;;;;7.70;5.07;;;22.60;99.90;;;;;;5074166;28;20181;-60
2023/09/17 08:26:36;;;;;;;6.00;5.40;;;22.50;99.90;;;;;;5074278;28;20170;-60
2023/09/17 08:29:04;;;;;;;6.18;5.60;;;22.50;99.90;;;;;;5073952;28;20242;-59
2023/09/17 08:31:32;;;;;;;9.35;5.25;;;22.70;99.90;;;;;;5074260;28;20518;-58
2023/09/17 08:33:58;;;;;;;8.25;4.97;;;22.90;99.90;;;;;;5072575;28;20178;-59
2023/09/17 08:36:24;;;;;;;5.30;4.47;;;22.90;99.90;;;;;;5073876;28;20162;-59
2023/09/17 08:38:52;;;;;;;7.50;4.80;;;23.00;99.90;;;;;;5074441;28;20239;-59
2023/09/17 08:41:18;;;;;;;7.60;5.03;;;23.00;99.90;;;;;;5074066;28;20170;-59
2023/09/17 08:43:48;;;;;;;4.60;4.10;;;23.00;99.90;;;;;;5073933;28;20177;-59
2023/09/17 08:46:14;;;;;;;7.10;4.88;;;23.10;99.90;;;;;;5073462;28;20572;-59
2023/09/17 08:48:40;;;;;;;8.02;5.30;;;23.30;99.90;;;;;;5073875;28;20177;-59
2023/09/17 08:51:09;;;;;;;5.05;4.22;;;23.30;99.90;;;;;;5072619;28;20154;-59
2023/09/17 08:54:07;;;;;;;8.32;4.45;;;23.30;99.90;;;;;;5073363;28;20705;-59
2023/09/17 08:56:35;;;;;;;7.47;4.40;;;23.40;99.90;;;;;;5070342;28;20630;-59
2023/09/17 08:59:06;;;;;;;8.15;5.20;;;23.50;99.90;;;;;;5073342;28;20170;-59
2023/09/17 09:01:33;;;;;;;5.32;4.38;;;23.50;99.90;;;;;;5073390;28;20164;-59
2023/09/17 09:04:00;;;;;;;4.75;4.00;;;23.60;99.90;;;;;;5073295;28;20546;-59
2023/09/17 09:06:29;;;;;;;5.43;4.60;;;23.80;99.90;;;;;;5073263;28;20164;-59
2023/09/17 09:08:55;;;;;;;5.82;4.35;;;23.80;99.90;;;;;;5073268;28;20541;-59
2023/09/17 09:11:22;;;;;;;4.88;4.20;;;23.90;99.90;;;;;;5073518;28;20166;-59
2023/09/17 09:13:50;;;;;;;5.57;3.70;;;23.90;99.90;;;;;;5073574;28;20312;-59
2023/09/17 09:16:16;;;;;;;7.15;4.78;;;23.80;99.90;;;;;;5073334;28;20247;-59
2023/09/17 09:18:41;;;;;;;6.65;4.75;;;24.10;99.90;;;;;;5072972;28;20201;-59
2023/09/17 09:21:10;;;;;;;5.70;4.07;;;24.10;99.90;;;;;;5072856;28;20173;-58
2023/09/17 09:23:35;;;;;;;5.55;4.07;;;24.30;99.90;;;;;;5072892;28;20169;-59
2023/09/17 09:26:01;;;;;;;6.15;4.30;;;24.30;99.90;;;;;;5072767;28;20170;-59
2023/09/17 09:28:30;;;;;;;5.75;4.43;;;24.00;99.90;;;;;;5072741;28;20172;-59
2023/09/17 09:30:56;;;;;;;9.60;4.97;;;24.20;99.90;;;;;;5072990;28;20529;-59
2023/09/17 09:33:23;;;;;;;11.20;7.28;;;24.40;99.90;;;;;;5072595;28;20205;-58
2023/09/17 09:35:49;;;;;;;8.02;4.78;;;24.40;99.90;;;;;;5073100;28;20623;-59
2023/09/17 09:38:15;;;;;;;7.43;4.47;;;24.40;99.90;;;;;;5072602;28;20172;-59
2023/09/17 09:40:43;;;;;;;6.60;5.13;;;24.40;99.90;;;;;;5072506;28;20200;-59
2023/09/17 09:43:27;;;;;;;7.43;4.25;;;24.50;99.90;;;;;;5072714;28;20227;-58
2023/09/17 09:45:53;;;;;;;5.28;4.20;;;24.40;99.90;;;;;;5072217;28;20709;-58
2023/09/17 09:48:18;;;;;;;5.82;5.22;;;24.50;99.90;;;;;;5072852;28;20180;-58
2023/09/17 09:50:45;;;;;;;5.45;3.70;;;24.40;99.90;;;;;;5072334;28;20586;-57
2023/09/17 09:53:11;;;;;;;9.65;4.03;;;24.50;99.90;;;;;;5072214;28;20689;-58
2023/09/17 09:55:38;;;;;;;6.93;5.18;;;24.80;99.90;;;;;;5072313;28;20226;-58
2023/09/17 09:58:04;;;;;;;5.30;4.22;;;24.80;99.90;;;;;;5072298;28;20173;-59
2023/09/17 10:00:30;;;;;;;10.43;5.70;;;24.50;99.90;;;;;;5072123;28;20543;-59
2023/09/17 10:02:56;;;;;;;5.90;4.28;;;24.70;99.90;;;;;;5071636;28;20170;-58
2023/09/17 10:05:37;;;;;;;5.20;4.35;;;24.50;99.90;;;;;;5071432;28;20282;-56
2023/09/17 10:08:04;;;;;;;6.68;4.18;;;24.40;99.90;;;;;;5071677;28;20257;-59
2023/09/17 10:10:35;;;;;;;4.57;4.18;;;24.30;99.90;;;;;;5071811;28;20249;-59
2023/09/17 10:13:05;;;;;;;5.35;3.80;;;24.50;99.90;;;;;;5071285;28;20284;-58
2023/09/17 10:15:31;;;;;;;4.35;3.85;;;;;;;;;;5072043;28;20510;-58
2023/09/17 10:17:57;;;;;;;5.47;3.97;;;24.80;99.90;;;;;;5071551;28;20165;-58
2023/09/17 10:20:23;;;;;;;5.45;3.90;;;24.60;99.90;;;;;;5071306;28;20184;-58
2023/09/17 10:22:51;;;;;;;6.72;4.43;;;24.80;99.90;;;;;;5071590;28;20636;-58
2023/09/17 10:25:18;;;;;;;9.27;5.45;;;25.00;99.90;;;;;;5072184;28;20165;-58
2023/09/17 10:27:46;;;;;;;5.70;4.43;;;25.10;99.90;;;;;;5071418;28;20168;-58
2023/09/17 10:30:15;;;;;;;5.47;3.60;;;25.20;99.90;;;;;;5071160;28;20158;-59
2023/09/17 10:32:42;;;;;;;4.20;3.80;;;25.40;99.90;;;;;;5071385;28;20197;-58
2023/09/17 10:35:10;;;;;;;4.63;4.07;;;25.50;99.90;;;;;;5071311;28;20638;-58
2023/09/17 10:37:38;;;;;;;5.75;4.03;;;25.70;99.90;;;;;;5071316;28;20193;-58
2023/09/17 10:40:10;;;;;;;5.40;3.83;;;25.80;99.90;;;;;;5071302;28;20153;-58
2023/09/17 10:42:39;;;;;;;5.47;4.20;;;25.70;99.90;;;;;;5071111;28;20164;-58
2023/09/17 10:45:10;;;;;;;6.05;3.92;;;25.60;99.90;;;;;;5071118;28;20166;-59
2023/09/17 10:47:39;;;;;;;7.75;4.13;;;25.50;99.90;;;;;;5070895;28;20180;-59
2023/09/17 10:50:07;;;;;;;6.35;5.18;;;26.00;99.90;;;;;;5070008;28;20244;-59
2023/09/17 10:52:34;;;;;;;7.10;3.83;;;26.10;99.90;;;;;;5069803;28;20207;-59
2023/09/17 10:55:00;;;;;;;5.57;3.97;;;26.20;99.90;;;;;;5070971;28;20279;-59
2023/09/17 10:57:41;;;;;;;4.30;3.38;;;26.00;99.90;;;;;;5071150;28;20276;-59
2023/09/17 11:00:13;;;;;;;5.43;3.42;;;26.10;99.90;;;;;;5071221;28;20165;-59
2023/09/17 11:02:45;;;;;;;6.30;3.67;;;26.40;99.90;;;;;;5070853;28;20196;-59
2023/09/17 11:05:13;;;;;;;3.95;3.53;;;26.30;99.90;;;;;;5071099;28;20227;-59
2023/09/17 11:07:41;;;;;;;7.13;4.45;;;26.30;99.90;;;;;;5070749;28;20211;-59
2023/09/17 11:10:10;;;;;;;6.95;3.47;;;26.70;99.90;;;;;;5070987;28;20171;-59
2023/09/17 11:12:40;;;;;;;4.03;3.67;;;26.50;99.90;;;;;;5069670;28;20296;-59
2023/09/17 11:15:09;;;;;;;5.18;3.30;;;26.40;99.90;;;;;;5073161;28;20167;-58
2023/09/17 11:17:42;;;;;;;6.20;3.20;;;26.50;99.90;;;;;;5074888;28;20638;-59
2023/09/17 11:20:19;;;;;;;4.38;3.13;;;26.80;99.90;;;;;;5076145;28;20185;-59
2023/09/17 11:22:56;;;;;;;3.90;3.50;;;27.00;99.90;;;;;;5074785;28;20169;-59
2023/09/17 11:25:39;;;;;;;4.50;3.50;;;27.10;99.90;;;;;;5074923;28;20168;-59
2023/09/17 11:28:13;;;;;;;4.15;3.20;;;27.00;99.90;;;;;;5074763;28;20176;-59
2023/09/17 11:31:09;;;;;;;4.78;3.28;;;27.00;99.90;;;;;;5074838;28;20161;-58
2023/09/17 11:33:39;;;;;;;5.20;3.67;;;27.00;99.90;;;;;;5074648;28;20235;-58
2023/09/17 11:36:05;;;;;;;4.85;3.42;;;27.20;99.90;;;;;;5074463;28;20161;-58
2023/09/17 11:38:31;;;;;;;4.63;3.50;;;27.20;99.90;;;;;;5074634;28;20170;-58
2023/09/17 11:41:08;;;;;;;3.47;3.17;;;27.10;99.90;;;;;;5074758;28;20212;-58
2023/09/17 11:43:36;;;;;;;4.50;3.58;;;27.20;99.90;;;;;;5074678;28;20157;-59
2023/09/17 11:46:04;;;;;;;5.32;3.38;;;27.30;99.90;;;;;;5074423;28;20260;-58
2023/09/17 11:48:34;;;;;;;4.72;3.50;;;27.50;99.90;;;;;;5074942;28;20169;-58
2023/09/17 11:51:30;;;;;;;5.00;4.03;;;26.80;99.90;;;;;;5074423;28;20654;-58
2023/09/17 11:54:03;;;;;;;4.72;3.50;;;26.80;99.90;;;;;;5074363;28;20192;-57
2023/09/17 11:56:33;;;;;;;3.95;3.35;;;26.60;99.90;;;;;;5074606;28;20157;-57
2023/09/17 11:59:05;;;;;;;3.80;3.40;;;26.70;99.90;;;;;;5074516;28;20165;-60
2023/09/17 12:01:54;;;;;;;3.78;3.47;;;26.70;99.90;;;;;;5074552;28;20161;-58
2023/09/17 12:04:30;;;;;;;5.10;3.45;;;26.80;99.90;;;;;;5074912;28;20161;-58
2023/09/17 12:06:57;;;;;;;4.47;3.38;;;26.80;99.90;;;;;;5074487;28;20165;-58
2023/09/17 12:12:04;;;;;;;3.33;3.03;;;27.00;99.90;;;;;;5074315;28;20242;-58
2023/09/17 12:14:31;;;;;;;5.18;3.50;;;27.20;99.90;;;;;;5074017;28;20277;-60
2023/09/17 12:16:57;;;;;;;3.38;3.08;;;27.20;99.90;;;;;;5074380;28;20193;-59
2023/09/17 12:19:23;;;;;;;5.03;3.15;;;27.50;99.90;;;;;;5074216;28;20196;-59
2023/09/17 12:21:55;;;;;;;4.20;3.00;;;27.40;99.90;;;;;;5074934;28;20695;-59
2023/09/17 12:24:23;;;;;;;3.53;3.20;;;27.40;99.90;;;;;;5074211;28;20177;-59
2023/09/17 12:29:36;;;;;;;6.10;3.25;;;27.30;99.90;;;;;;5074174;28;20177;-58
2023/09/17 12:32:06;;;;;;;3.80;3.00;;;27.40;99.90;;;;;;5073981;28;20650;-58
2023/09/17 12:34:36;;;;;;;5.30;3.13;;;27.10;99.90;;;;;;5073961;28;20168;-59
2023/09/17 12:37:04;;;;;;;3.70;3.28;;;26.90;99.90;;;;;;5074193;28;20170;-59
2023/09/17 12:39:30;;;;;;;3.67;3.25;;;27.00;99.90;;;;;;5073962;28;20237;-59
2023/09/17 12:41:56;;;;;;;4.97;3.50;;;27.30;99.90;;;;;;5072709;28;20649;-61
2023/09/17 12:44:24;;;;;;;8.25;3.65;;;27.10;99.90;;;;;;5073806;28;20560;-58
2023/09/17 12:46:50;;;;;;;5.32;4.05;;;27.20;99.90;;;;;;5073426;28;20281;-57